sensor_id;sensor_type;location;lat;lon;timestamp;P1;durP1;ratioP1;P2;durP2;ratioP2
9667;SDS011;4872;48.316;10.650;2023-01-29T05:05:53;16.87;;;12.90;;
9667;SDS011;4872;48.316;10.650;2023-01-29T05:08:23;16.77;;;13.27;;
9667;SDS011;4872;48.316;10.650;2023-01-29T05:10:51;20.97;;;14.40;;
9667;SDS011;4872;48.316;10.650;2023-01-29T05:13:20;19.20;;;13.93;;
9667;SDS011;4872;48.316;10.650;2023-01-29T05:15:49;15.90;;;13.03;;
9667;SDS011;4872;48.316;10.650;2023-01-29T05:18:21;20.17;;;13.67;;
9667;SDS011;4872;48.316;10.650;2023-01-29T05:20:48;19.53;;;14.03;;
9667;SDS011;4872;48.316;10.650;2023-01-29T05:23:17;17.70;;;13.40;;
9667;SDS011;4872;48.316;10.650;2023-01-29T05:25:45;17.23;;;13.03;;
9667;SDS011;4872;48.316;10.650;2023-01-29T05:28:13;20.67;;;15.03;;
9667;SDS011;4872;48.316;10.650;2023-01-29T05:30:41;18.97;;;14.07;;
9667;SDS011;4872;48.316;10.650;2023-01-29T05:33:10;17.57;;;13.97;;
9667;SDS011;4872;48.316;10.650;2023-01-29T05:35:39;19.13;;;13.73;;
9667;SDS011;4872;48.316;10.650;2023-01-29T05:38:06;18.20;;;13.80;;
9667;SDS011;4872;48.316;10.650;2023-01-29T05:40:34;18.43;;;13.63;;
9667;SDS011;4872;48.316;10.650;2023-01-29T05:43:01;17.97;;;13.47;;
9667;SDS011;4872;48.316;10.650;2023-01-29T05:45:28;18.93;;;13.93;;
9667;SDS011;4872;48.316;10.650;2023-01-29T05:47:55;20.13;;;14.83;;
9667;SDS011;4872;48.316;10.650;2023-01-29T05:50:22;18.70;;;13.93;;
9667;SDS011;4872;48.316;10.650;2023-01-29T05:52:54;17.13;;;13.13;;
9667;SDS011;4872;48.316;10.650;2023-01-29T05:55:21;17.63;;;13.37;;
9667;SDS011;4872;48.316;10.650;2023-01-29T05:57:49;18.60;;;14.23;;
9667;SDS011;4872;48.316;10.650;2023-01-29T06:00:17;18.60;;;13.57;;
9667;SDS011;4872;48.316;10.650;2023-01-29T06:02:44;18.13;;;13.50;;
9667;SDS011;4872;48.316;10.650;2023-01-29T06:05:11;16.27;;;11.97;;
9667;SDS011;4872;48.316;10.650;2023-01-29T06:07:38;17.17;;;13.37;;
9667;SDS011;4872;48.316;10.650;2023-01-29T06:10:10;18.60;;;13.57;;
9667;SDS011;4872;48.316;10.650;2023-01-29T06:12:37;16.43;;;11.97;;
9667;SDS011;4872;48.316;10.650;2023-01-29T06:15:06;17.83;;;12.53;;
9667;SDS011;4872;48.316;10.650;2023-01-29T06:17:33;17.63;;;13.47;;
9667;SDS011;4872;48.316;10.650;2023-01-29T06:20:00;18.50;;;13.70;;
9667;SDS011;4872;48.316;10.650;2023-01-29T06:22:27;18.80;;;13.33;;
9667;SDS011;4872;48.316;10.650;2023-01-29T06:24:54;19.40;;;13.93;;
9667;SDS011;4872;48.316;10.650;2023-01-29T06:27:20;18.03;;;13.60;;
9667;SDS011;4872;48.316;10.650;2023-01-29T06:29:47;17.60;;;12.80;;
9667;SDS011;4872;48.316;10.650;2023-01-29T06:32:15;18.40;;;13.63;;
9667;SDS011;4872;48.316;10.650;2023-01-29T06:34:42;16.90;;;13.10;;
9667;SDS011;4872;48.316;10.650;2023-01-29T06:37:09;17.63;;;13.20;;
9667;SDS011;4872;48.316;10.650;2023-01-29T06:39:35;18.00;;;13.03;;
9667;SDS011;4872;48.316;10.650;2023-01-29T06:42:02;17.67;;;13.30;;
9667;SDS011;4872;48.316;10.650;2023-01-29T06:44:29;16.40;;;12.37;;
9667;SDS011;4872;48.316;10.650;2023-01-29T06:46:56;18.60;;;13.90;;
9667;SDS011;4872;48.316;10.650;2023-01-29T06:49:24;16.77;;;13.07;;
9667;SDS011;4872;48.316;10.650;2023-01-29T06:51:51;18.07;;;13.07;;
9667;SDS011;4872;48.316;10.650;2023-01-29T06:54:17;19.63;;;14.40;;
9667;SDS011;4872;48.316;10.650;2023-01-29T06:56:44;18.53;;;13.03;;
9667;SDS011;4872;48.316;10.650;2023-01-29T06:59:11;18.77;;;13.57;;
9667;SDS011;4872;48.316;10.650;2023-01-29T07:01:38;17.83;;;13.90;;
9667;SDS011;4872;48.316;10.650;2023-01-29T07:04:06;16.43;;;12.90;;
9667;SDS011;4872;48.316;10.650;2023-01-29T07:06:34;18.80;;;13.73;;
9667;SDS011;4872;48.316;10.650;2023-01-29T07:09:01;18.30;;;13.83;;
9667;SDS011;4872;48.316;10.650;2023-01-29T07:11:28;20.37;;;14.20;;
9667;SDS011;4872;48.316;10.650;2023-01-29T07:13:55;18.87;;;13.90;;
9667;SDS011;4872;48.316;10.650;2023-01-29T07:16:22;17.73;;;13.73;;
9667;SDS011;4872;48.316;10.650;2023-01-29T07:18:50;17.97;;;13.57;;
9667;SDS011;4872;48.316;10.650;2023-01-29T07:21:17;18.70;;;13.87;;
9667;SDS011;4872;48.316;10.650;2023-01-29T07:23:45;17.90;;;14.00;;
9667;SDS011;4872;48.316;10.650;2023-01-29T07:26:12;21.53;;;15.13;;
9667;SDS011;4872;48.316;10.650;2023-01-29T07:28:39;21.70;;;15.47;;
9667;SDS011;4872;48.316;10.650;2023-01-29T07:31:06;19.20;;;14.37;;
9667;SDS011;4872;48.316;10.650;2023-01-29T07:33:36;21.97;;;16.10;;
9667;SDS011;4872;48.316;10.650;2023-01-29T07:36:05;18.67;;;15.73;;
9667;SDS011;4872;48.316;10.650;2023-01-29T07:38:32;19.50;;;15.10;;
9667;SDS011;4872;48.316;10.650;2023-01-29T07:41:01;21.63;;;15.60;;
9667;SDS011;4872;48.316;10.650;2023-01-29T07:43:27;20.87;;;14.43;;
9667;SDS011;4872;48.316;10.650;2023-01-29T07:45:54;19.53;;;14.53;;
9667;SDS011;4872;48.316;10.650;2023-01-29T07:48:21;20.23;;;15.37;;
9667;SDS011;4872;48.316;10.650;2023-01-29T07:50:52;19.50;;;14.80;;
9667;SDS011;4872;48.316;10.650;2023-01-29T07:53:20;17.60;;;14.30;;
9667;SDS011;4872;48.316;10.650;2023-01-29T07:55:46;20.53;;;15.87;;
9667;SDS011;4872;48.316;10.650;2023-01-29T07:58:15;23.17;;;15.93;;
9667;SDS011;4872;48.316;10.650;2023-01-29T08:00:41;20.70;;;14.33;;
9667;SDS011;4872;48.316;10.650;2023-01-29T08:03:10;19.63;;;14.73;;
9667;SDS011;4872;48.316;10.650;2023-01-29T08:05:40;20.60;;;15.67;;
9667;SDS011;4872;48.316;10.650;2023-01-29T08:08:07;20.97;;;15.50;;
9667;SDS011;4872;48.316;10.650;2023-01-29T08:10:34;18.97;;;14.23;;
9667;SDS011;4872;48.316;10.650;2023-01-29T08:13:02;21.43;;;15.70;;
9667;SDS011;4872;48.316;10.650;2023-01-29T08:15:31;20.23;;;14.80;;
9667;SDS011;4872;48.316;10.650;2023-01-29T08:17:59;19.53;;;13.67;;
9667;SDS011;4872;48.316;10.650;2023-01-29T08:20:26;19.03;;;14.37;;
9667;SDS011;4872;48.316;10.650;2023-01-29T08:22:57;18.53;;;14.47;;
9667;SDS011;4872;48.316;10.650;2023-01-29T08:25:25;17.40;;;13.47;;
9667;SDS011;4872;48.316;10.650;2023-01-29T08:27:52;19.40;;;14.60;;
9667;SDS011;4872;48.316;10.650;2023-01-29T08:30:19;16.60;;;13.43;;
9667;SDS011;4872;48.316;10.650;2023-01-29T08:32:47;19.00;;;13.17;;
9667;SDS011;4872;48.316;10.650;2023-01-29T08:35:14;18.87;;;14.77;;
9667;SDS011;4872;48.316;10.650;2023-01-29T08:37:40;16.47;;;12.40;;
9667;SDS011;4872;48.316;10.650;2023-01-29T08:40:08;20.40;;;14.30;;
9667;SDS011;4872;48.316;10.650;2023-01-29T08:42:37;20.20;;;14.30;;
9667;SDS011;4872;48.316;10.650;2023-01-29T08:45:05;20.07;;;13.90;;
9667;SDS011;4872;48.316;10.650;2023-01-29T08:47:33;17.37;;;12.90;;
9667;SDS011;4872;48.316;10.650;2023-01-29T08:50:01;17.60;;;13.63;;
9667;SDS011;4872;48.316;10.650;2023-01-29T08:52:28;20.27;;;14.37;;
9667;SDS011;4872;48.316;10.650;2023-01-29T08:54:55;17.80;;;13.17;;
9667;SDS011;4872;48.316;10.650;2023-01-29T08:57:22;18.83;;;14.60;;
9667;SDS011;4872;48.316;10.650;2023-01-29T08:59:49;19.77;;;15.90;;
9667;SDS011;4872;48.316;10.650;2023-01-29T09:02:16;18.13;;;13.43;;
9667;SDS011;4872;48.316;10.650;2023-01-29T09:04:42;18.30;;;13.20;;
9667;SDS011;4872;48.316;10.650;2023-01-29T09:07:11;16.63;;;13.40;;
9667;SDS011;4872;48.316;10.650;2023-01-29T09:09:37;17.37;;;13.33;;
9667;SDS011;4872;48.316;10.650;2023-01-29T09:12:04;17.73;;;13.07;;
9667;SDS011;4872;48.316;10.650;2023-01-29T09:14:31;17.23;;;13.40;;
9667;SDS011;4872;48.316;10.650;2023-01-29T09:16:58;18.70;;;13.63;;
9667;SDS011;4872;48.316;10.650;2023-01-29T09:19:25;16.87;;;13.47;;
9667;SDS011;4872;48.316;10.650;2023-01-29T09:21:52;17.63;;;12.87;;
9667;SDS011;4872;48.316;10.650;2023-01-29T09:24:20;16.30;;;12.70;;
9667;SDS011;4872;48.316;10.650;2023-01-29T09:26:47;18.90;;;14.73;;
9667;SDS011;4872;48.316;10.650;2023-01-29T09:29:13;13.40;;;10.83;;
9667;SDS011;4872;48.316;10.650;2023-01-29T09:31:40;12.63;;;9.77;;
9667;SDS011;4872;48.316;10.650;2023-01-29T09:34:07;12.17;;;8.63;;
9667;SDS011;4872;48.316;10.650;2023-01-29T09:36:34;12.63;;;8.93;;
9667;SDS011;4872;48.316;10.650;2023-01-29T09:39:01;14.53;;;11.40;;
9667;SDS011;4872;48.316;10.650;2023-01-29T09:41:32;16.17;;;12.90;;
9667;SDS011;4872;48.316;10.650;2023-01-29T09:44:10;15.60;;;11.93;;
9667;SDS011;4872;48.316;10.650;2023-01-29T09:46:40;17.33;;;12.83;;
9667;SDS011;4872;48.316;10.650;2023-01-29T09:49:10;15.57;;;12.57;;
9667;SDS011;4872;48.316;10.650;2023-01-29T09:51:43;15.93;;;12.90;;
9667;SDS011;4872;48.316;10.650;2023-01-29T09:54:16;14.93;;;12.60;;
9667;SDS011;4872;48.316;10.650;2023-01-29T09:56:48;17.97;;;13.03;;
9667;SDS011;4872;48.316;10.650;2023-01-29T09:59:18;17.67;;;14.10;;
9667;SDS011;4872;48.316;10.650;2023-01-29T10:01:49;16.63;;;13.57;;
9667;SDS011;4872;48.316;10.650;2023-01-29T10:04:27;16.43;;;12.50;;
9667;SDS011;4872;48.316;10.650;2023-01-29T10:07:19;12.43;;;11.03;;
9667;SDS011;4872;48.316;10.650;2023-01-29T10:10:00;14.07;;;10.23;;
9667;SDS011;4872;48.316;10.650;2023-01-29T10:12:43;12.40;;;8.90;;
9667;SDS011;4872;48.316;10.650;2023-01-29T10:15:38;12.77;;;10.23;;
9667;SDS011;4872;48.316;10.650;2023-01-29T10:21:22;13.37;;;10.10;;
9667;SDS011;4872;48.316;10.650;2023-01-29T10:23:57;11.90;;;10.27;;
9667;SDS011;4872;48.316;10.650;2023-01-29T10:26:33;12.40;;;10.07;;
9667;SDS011;4872;48.316;10.650;2023-01-29T10:29:04;11.50;;;10.00;;
9667;SDS011;4872;48.316;10.650;2023-01-29T10:31:34;15.87;;;11.87;;
9667;SDS011;4872;48.316;10.650;2023-01-29T10:34:05;13.10;;;10.83;;
9667;SDS011;4872;48.316;10.650;2023-01-29T10:36:37;15.20;;;12.20;;
9667;SDS011;4872;48.316;10.650;2023-01-29T10:39:09;15.07;;;11.00;;
9667;SDS011;4872;48.316;10.650;2023-01-29T10:41:44;22.00;;;13.70;;
9667;SDS011;4872;48.316;10.650;2023-01-29T10:44:24;11.70;;;8.60;;
9667;SDS011;4872;48.316;10.650;2023-01-29T10:47:06;10.40;;;8.40;;
9667;SDS011;4872;48.316;10.650;2023-01-29T10:49:50;11.30;;;8.27;;
9667;SDS011;4872;48.316;10.650;2023-01-29T10:52:34;11.07;;;8.70;;
9667;SDS011;4872;48.316;10.650;2023-01-29T10:55:13;11.17;;;9.20;;
9667;SDS011;4872;48.316;10.650;2023-01-29T10:57:55;9.97;;;8.10;;
9667;SDS011;4872;48.316;10.650;2023-01-29T11:00:29;10.00;;;8.10;;
9667;SDS011;4872;48.316;10.650;2023-01-29T11:03:03;12.50;;;8.93;;
9667;SDS011;4872;48.316;10.650;2023-01-29T11:05:40;11.23;;;8.90;;
9667;SDS011;4872;48.316;10.650;2023-01-29T11:08:12;11.93;;;9.17;;
9667;SDS011;4872;48.316;10.650;2023-01-29T11:10:43;12.00;;;8.90;;
9667;SDS011;4872;48.316;10.650;2023-01-29T11:13:14;13.10;;;10.57;;
9667;SDS011;4872;48.316;10.650;2023-01-29T11:15:44;10.77;;;9.23;;
9667;SDS011;4872;48.316;10.650;2023-01-29T11:18:11;11.23;;;9.40;;
9667;SDS011;4872;48.316;10.650;2023-01-29T11:20:40;10.90;;;8.90;;
9667;SDS011;4872;48.316;10.650;2023-01-29T11:23:19;15.13;;;10.83;;
9667;SDS011;4872;48.316;10.650;2023-01-29T11:25:51;12.90;;;10.07;;
9667;SDS011;4872;48.316;10.650;2023-01-29T11:28:33;12.57;;;10.20;;
9667;SDS011;4872;48.316;10.650;2023-01-29T11:31:03;14.40;;;11.50;;
9667;SDS011;4872;48.316;10.650;2023-01-29T11:33:40;12.33;;;10.47;;
9667;SDS011;4872;48.316;10.650;2023-01-29T11:36:18;11.40;;;9.60;;
9667;SDS011;4872;48.316;10.650;2023-01-29T11:38:47;11.40;;;9.57;;
9667;SDS011;4872;48.316;10.650;2023-01-29T11:41:41;11.30;;;9.70;;
9667;SDS011;4872;48.316;10.650;2023-01-29T11:44:19;11.83;;;10.13;;
9667;SDS011;4872;48.316;10.650;2023-01-29T11:46:48;13.80;;;10.90;;
9667;SDS011;4872;48.316;10.650;2023-01-29T11:49:27;13.73;;;10.77;;
9667;SDS011;4872;48.316;10.650;2023-01-29T11:51:58;14.10;;;10.73;;
9667;SDS011;4872;48.316;10.650;2023-01-29T11:54:29;15.40;;;10.83;;
9667;SDS011;4872;48.316;10.650;2023-01-29T11:56:59;13.47;;;11.07;;
9667;SDS011;4872;48.316;10.650;2023-01-29T11:59:36;14.40;;;11.67;;
9667;SDS011;4872;48.316;10.650;2023-01-29T12:02:18;12.43;;;10.67;;
9667;SDS011;4872;48.316;10.650;2023-01-29T12:04:52;16.03;;;12.03;;
9667;SDS011;4872;48.316;10.650;2023-01-29T12:07:21;14.13;;;11.40;;
9667;SDS011;4872;48.316;10.650;2023-01-29T12:09:49;13.83;;;11.83;;
9667;SDS011;4872;48.316;10.650;2023-01-29T12:15:14;13.13;;;11.83;;
9667;SDS011;4872;48.316;10.650;2023-01-29T12:17:46;14.67;;;10.53;;
9667;SDS011;4872;48.316;10.650;2023-01-29T12:20:30;15.73;;;11.37;;
9667;SDS011;4872;48.316;10.650;2023-01-29T12:23:05;13.27;;;10.77;;
9667;SDS011;4872;48.316;10.650;2023-01-29T12:25:46;15.07;;;11.80;;
9667;SDS011;4872;48.316;10.650;2023-01-29T12:28:22;14.37;;;11.83;;
9667;SDS011;4872;48.316;10.650;2023-01-29T12:31:05;12.57;;;9.87;;
9667;SDS011;4872;48.316;10.650;2023-01-29T12:33:40;13.03;;;9.93;;
9667;SDS011;4872;48.316;10.650;2023-01-29T12:36:15;13.50;;;10.63;;
9667;SDS011;4872;48.316;10.650;2023-01-29T12:38:47;14.77;;;11.33;;
9667;SDS011;4872;48.316;10.650;2023-01-29T12:41:23;12.97;;;10.93;;
9667;SDS011;4872;48.316;10.650;2023-01-29T12:43:55;14.13;;;11.07;;
9667;SDS011;4872;48.316;10.650;2023-01-29T12:46:26;15.03;;;11.40;;
9667;SDS011;4872;48.316;10.650;2023-01-29T12:48:56;13.87;;;10.57;;
9667;SDS011;4872;48.316;10.650;2023-01-29T12:51:28;19.63;;;13.30;;
9667;SDS011;4872;48.316;10.650;2023-01-29T12:54:01;15.40;;;10.87;;
9667;SDS011;4872;48.316;10.650;2023-01-29T12:56:33;16.93;;;13.40;;
9667;SDS011;4872;48.316;10.650;2023-01-29T12:59:04;15.97;;;12.33;;
9667;SDS011;4872;48.316;10.650;2023-01-29T13:01:39;18.33;;;14.63;;
9667;SDS011;4872;48.316;10.650;2023-01-29T13:04:13;19.17;;;14.80;;
9667;SDS011;4872;48.316;10.650;2023-01-29T13:06:46;17.13;;;13.47;;
9667;SDS011;4872;48.316;10.650;2023-01-29T13:09:18;15.80;;;13.23;;
9667;SDS011;4872;48.316;10.650;2023-01-29T13:11:49;18.80;;;14.80;;
9667;SDS011;4872;48.316;10.650;2023-01-29T13:14:20;23.40;;;15.80;;
9667;SDS011;4872;48.316;10.650;2023-01-29T13:16:49;19.07;;;14.37;;
9667;SDS011;4872;48.316;10.650;2023-01-29T13:19:23;19.43;;;15.30;;
9667;SDS011;4872;48.316;10.650;2023-01-29T13:21:53;17.53;;;12.63;;
9667;SDS011;4872;48.316;10.650;2023-01-29T13:24:24;22.70;;;15.33;;
9667;SDS011;4872;48.316;10.650;2023-01-29T13:26:58;17.93;;;13.00;;
9667;SDS011;4872;48.316;10.650;2023-01-29T13:29:27;20.30;;;14.67;;
9667;SDS011;4872;48.316;10.650;2023-01-29T13:31:58;25.47;;;17.17;;
9667;SDS011;4872;48.316;10.650;2023-01-29T13:34:28;20.37;;;15.43;;
9667;SDS011;4872;48.316;10.650;2023-01-29T13:36:58;25.37;;;17.03;;
9667;SDS011;4872;48.316;10.650;2023-01-29T13:39:28;30.77;;;19.37;;
9667;SDS011;4872;48.316;10.650;2023-01-29T13:41:56;27.13;;;16.90;;
9667;SDS011;4872;48.316;10.650;2023-01-29T13:44:25;25.50;;;17.27;;
9667;SDS011;4872;48.316;10.650;2023-01-29T13:46:55;19.13;;;14.77;;
9667;SDS011;4872;48.316;10.650;2023-01-29T13:49:24;18.27;;;13.60;;
9667;SDS011;4872;48.316;10.650;2023-01-29T13:51:58;19.80;;;15.03;;
9667;SDS011;4872;48.316;10.650;2023-01-29T13:54:48;20.60;;;14.83;;
9667;SDS011;4872;48.316;10.650;2023-01-29T13:57:32;16.93;;;13.60;;
9667;SDS011;4872;48.316;10.650;2023-01-29T14:00:01;21.47;;;15.27;;
9667;SDS011;4872;48.316;10.650;2023-01-29T14:02:29;20.67;;;15.27;;
9667;SDS011;4872;48.316;10.650;2023-01-29T14:13:53;22.20;;;15.53;;
9667;SDS011;4872;48.316;10.650;2023-01-29T14:16:26;24.40;;;16.97;;
9667;SDS011;4872;48.316;10.650;2023-01-29T14:19:00;24.70;;;17.50;;
9667;SDS011;4872;48.316;10.650;2023-01-29T14:21:34;23.53;;;16.57;;
9667;SDS011;4872;48.316;10.650;2023-01-29T14:24:15;24.20;;;17.83;;
9667;SDS011;4872;48.316;10.650;2023-01-29T14:26:44;21.17;;;15.67;;
9667;SDS011;4872;48.316;10.650;2023-01-29T14:29:16;21.17;;;15.97;;
9667;SDS011;4872;48.316;10.650;2023-01-29T14:31:46;23.60;;;15.67;;
9667;SDS011;4872;48.316;10.650;2023-01-29T14:34:17;26.47;;;18.03;;
9667;SDS011;4872;48.316;10.650;2023-01-29T14:36:53;31.23;;;21.77;;
9667;SDS011;4872;48.316;10.650;2023-01-29T14:39:32;22.03;;;16.50;;
9667;SDS011;4872;48.316;10.650;2023-01-29T14:42:02;21.80;;;15.73;;
9667;SDS011;4872;48.316;10.650;2023-01-29T14:47:55;24.57;;;17.43;;
9667;SDS011;4872;48.316;10.650;2023-01-29T14:53:29;24.13;;;15.93;;
9667;SDS011;4872;48.316;10.650;2023-01-29T14:56:10;23.10;;;16.40;;
9667;SDS011;4872;48.316;10.650;2023-01-29T14:58:41;27.63;;;19.37;;
9667;SDS011;4872;48.316;10.650;2023-01-29T15:01:14;24.87;;;16.87;;
9667;SDS011;4872;48.316;10.650;2023-01-29T15:03:48;25.97;;;18.43;;
9667;SDS011;4872;48.316;10.650;2023-01-29T15:06:18;30.47;;;19.27;;
9667;SDS011;4872;48.316;10.650;2023-01-29T15:08:59;25.77;;;17.77;;
9667;SDS011;4872;48.316;10.650;2023-01-29T15:11:39;24.27;;;17.53;;
9667;SDS011;4872;48.316;10.650;2023-01-29T15:14:16;23.20;;;16.30;;
9667;SDS011;4872;48.316;10.650;2023-01-29T15:16:54;26.90;;;18.43;;
9667;SDS011;4872;48.316;10.650;2023-01-29T15:19:31;23.90;;;16.37;;
9667;SDS011;4872;48.316;10.650;2023-01-29T15:22:01;23.13;;;16.20;;
9667;SDS011;4872;48.316;10.650;2023-01-29T15:24:34;24.40;;;17.03;;
9667;SDS011;4872;48.316;10.650;2023-01-29T15:27:01;21.60;;;16.00;;
9667;SDS011;4872;48.316;10.650;2023-01-29T15:29:28;26.27;;;18.10;;
9667;SDS011;4872;48.316;10.650;2023-01-29T15:31:55;21.23;;;14.30;;
9667;SDS011;4872;48.316;10.650;2023-01-29T15:34:23;18.27;;;13.33;;
9667;SDS011;4872;48.316;10.650;2023-01-29T15:36:50;18.73;;;13.20;;
9667;SDS011;4872;48.316;10.650;2023-01-29T15:39:18;22.60;;;15.50;;
9667;SDS011;4872;48.316;10.650;2023-01-29T15:41:48;18.73;;;14.47;;
9667;SDS011;4872;48.316;10.650;2023-01-29T15:44:19;20.73;;;14.97;;
9667;SDS011;4872;48.316;10.650;2023-01-29T15:46:47;18.13;;;14.37;;
9667;SDS011;4872;48.316;10.650;2023-01-29T15:49:21;21.93;;;15.80;;
9667;SDS011;4872;48.316;10.650;2023-01-29T15:51:54;25.00;;;16.77;;
9667;SDS011;4872;48.316;10.650;2023-01-29T15:54:22;21.77;;;16.63;;
9667;SDS011;4872;48.316;10.650;2023-01-29T15:56:52;27.77;;;18.83;;
9667;SDS011;4872;48.316;10.650;2023-01-29T15:59:21;23.90;;;16.13;;
9667;SDS011;4872;48.316;10.650;2023-01-29T16:01:49;20.00;;;13.97;;
9667;SDS011;4872;48.316;10.650;2023-01-29T16:04:18;24.67;;;17.77;;
9667;SDS011;4872;48.316;10.650;2023-01-29T16:06:53;24.93;;;17.97;;
9667;SDS011;4872;48.316;10.650;2023-01-29T16:09:21;24.90;;;17.63;;
9667;SDS011;4872;48.316;10.650;2023-01-29T16:11:50;24.23;;;16.17;;
9667;SDS011;4872;48.316;10.650;2023-01-29T16:14:20;26.70;;;17.80;;
9667;SDS011;4872;48.316;10.650;2023-01-29T16:16:49;32.57;;;21.47;;
9667;SDS011;4872;48.316;10.650;2023-01-29T16:19:23;26.57;;;18.27;;
9667;SDS011;4872;48.316;10.650;2023-01-29T16:21:53;30.80;;;20.77;;
9667;SDS011;4872;48.316;10.650;2023-01-29T16:24:23;31.80;;;21.00;;
9667;SDS011;4872;48.316;10.650;2023-01-29T16:26:52;29.23;;;20.97;;
9667;SDS011;4872;48.316;10.650;2023-01-29T16:29:29;33.73;;;22.10;;
9667;SDS011;4872;48.316;10.650;2023-01-29T16:31:58;39.17;;;26.93;;
9667;SDS011;4872;48.316;10.650;2023-01-29T16:34:28;40.03;;;27.37;;
9667;SDS011;4872;48.316;10.650;2023-01-29T16:36:57;38.07;;;24.57;;
9667;SDS011;4872;48.316;10.650;2023-01-29T16:39:28;44.00;;;28.17;;
9667;SDS011;4872;48.316;10.650;2023-01-29T16:44:55;35.47;;;25.23;;
9667;SDS011;4872;48.316;10.650;2023-01-29T16:47:28;38.67;;;25.77;;
9667;SDS011;4872;48.316;10.650;2023-01-29T16:49:57;42.37;;;29.70;;
9667;SDS011;4872;48.316;10.650;2023-01-29T16:52:26;40.83;;;27.80;;
9667;SDS011;4872;48.316;10.650;2023-01-29T16:54:58;40.23;;;28.50;;
9667;SDS011;4872;48.316;10.650;2023-01-29T16:57:46;37.10;;;23.87;;
9667;SDS011;4872;48.316;10.650;2023-01-29T17:00:19;36.37;;;23.77;;
9667;SDS011;4872;48.316;10.650;2023-01-29T17:02:49;35.37;;;22.87;;
9667;SDS011;4872;48.316;10.650;2023-01-29T17:05:19;34.70;;;22.60;;
9667;SDS011;4872;48.316;10.650;2023-01-29T17:07:48;40.40;;;24.97;;
9667;SDS011;4872;48.316;10.650;2023-01-29T17:10:16;28.50;;;20.60;;
9667;SDS011;4872;48.316;10.650;2023-01-29T17:12:47;34.00;;;22.30;;
9667;SDS011;4872;48.316;10.650;2023-01-29T17:15:31;35.03;;;24.23;;
9667;SDS011;4872;48.316;10.650;2023-01-29T17:18:00;38.93;;;26.73;;
9667;SDS011;4872;48.316;10.650;2023-01-29T17:20:28;40.13;;;26.67;;
9667;SDS011;4872;48.316;10.650;2023-01-29T17:22:56;46.70;;;29.63;;
9667;SDS011;4872;48.316;10.650;2023-01-29T17:25:23;36.30;;;23.50;;
9667;SDS011;4872;48.316;10.650;2023-01-29T17:27:50;32.33;;;21.97;;
9667;SDS011;4872;48.316;10.650;2023-01-29T17:30:18;29.17;;;19.30;;
9667;SDS011;4872;48.316;10.650;2023-01-29T17:32:47;30.37;;;21.37;;
9667;SDS011;4872;48.316;10.650;2023-01-29T17:35:14;61.00;;;37.43;;
9667;SDS011;4872;48.316;10.650;2023-01-29T17:37:42;33.10;;;22.70;;
9667;SDS011;4872;48.316;10.650;2023-01-29T17:40:12;49.30;;;32.50;;
9667;SDS011;4872;48.316;10.650;2023-01-29T17:42:46;27.13;;;18.17;;
9667;SDS011;4872;48.316;10.650;2023-01-29T17:45:13;30.33;;;20.27;;
9667;SDS011;4872;48.316;10.650;2023-01-29T17:47:40;38.63;;;23.70;;
9667;SDS011;4872;48.316;10.650;2023-01-29T17:50:17;27.60;;;19.67;;
9667;SDS011;4872;48.316;10.650;2023-01-29T17:52:47;32.50;;;22.00;;
9667;SDS011;4872;48.316;10.650;2023-01-29T17:55:14;29.80;;;19.77;;
9667;SDS011;4872;48.316;10.650;2023-01-29T17:57:40;34.67;;;24.57;;
9667;SDS011;4872;48.316;10.650;2023-01-29T18:00:12;30.13;;;20.17;;
9667;SDS011;4872;48.316;10.650;2023-01-29T18:02:42;29.40;;;19.47;;
9667;SDS011;4872;48.316;10.650;2023-01-29T18:05:09;32.77;;;21.57;;
9667;SDS011;4872;48.316;10.650;2023-01-29T18:07:37;25.47;;;16.10;;
9667;SDS011;4872;48.316;10.650;2023-01-29T18:10:09;25.97;;;16.73;;
9667;SDS011;4872;48.316;10.650;2023-01-29T18:12:38;24.47;;;16.87;;
9667;SDS011;4872;48.316;10.650;2023-01-29T18:15:05;24.00;;;16.70;;
9667;SDS011;4872;48.316;10.650;2023-01-29T18:17:32;25.57;;;16.80;;
9667;SDS011;4872;48.316;10.650;2023-01-29T18:19:59;22.30;;;16.13;;
9667;SDS011;4872;48.316;10.650;2023-01-29T18:22:27;27.70;;;17.53;;
9667;SDS011;4872;48.316;10.650;2023-01-29T18:24:55;27.30;;;18.37;;
9667;SDS011;4872;48.316;10.650;2023-01-29T18:27:22;25.70;;;17.27;;
9667;SDS011;4872;48.316;10.650;2023-01-29T18:29:49;24.83;;;16.80;;
9667;SDS011;4872;48.316;10.650;2023-01-29T18:32:16;25.80;;;18.07;;
9667;SDS011;4872;48.316;10.650;2023-01-29T18:34:43;27.53;;;17.47;;
9667;SDS011;4872;48.316;10.650;2023-01-29T18:37:09;25.27;;;16.47;;
9667;SDS011;4872;48.316;10.650;2023-01-29T18:39:36;24.07;;;17.50;;
9667;SDS011;4872;48.316;10.650;2023-01-29T18:42:04;24.60;;;16.60;;
9667;SDS011;4872;48.316;10.650;2023-01-29T18:44:31;25.53;;;17.37;;
9667;SDS011;4872;48.316;10.650;2023-01-29T18:46:58;28.17;;;18.40;;
9667;SDS011;4872;48.316;10.650;2023-01-29T18:49:25;32.90;;;19.53;;
9667;SDS011;4872;48.316;10.650;2023-01-29T18:51:52;32.73;;;20.20;;
9667;SDS011;4872;48.316;10.650;2023-01-29T18:54:19;36.10;;;22.67;;
9667;SDS011;4872;48.316;10.650;2023-01-29T18:56:45;28.87;;;17.43;;
9667;SDS011;4872;48.316;10.650;2023-01-29T18:59:14;33.60;;;22.47;;
9667;SDS011;4872;48.316;10.650;2023-01-29T19:01:40;22.90;;;16.67;;
9667;SDS011;4872;48.316;10.650;2023-01-29T19:04:07;28.23;;;18.57;;
9667;SDS011;4872;48.316;10.650;2023-01-29T19:06:34;24.20;;;16.57;;
9667;SDS011;4872;48.316;10.650;2023-01-29T19:09:01;26.00;;;16.33;;
9667;SDS011;4872;48.316;10.650;2023-01-29T19:11:28;25.10;;;16.13;;
9667;SDS011;4872;48.316;10.650;2023-01-29T19:13:54;76.30;;;40.93;;
9667;SDS011;4872;48.316;10.650;2023-01-29T19:16:23;25.33;;;16.87;;
9667;SDS011;4872;48.316;10.650;2023-01-29T19:18:51;26.13;;;16.93;;
9667;SDS011;4872;48.316;10.650;2023-01-29T19:21:20;29.53;;;19.83;;
9667;SDS011;4872;48.316;10.650;2023-01-29T19:23:52;28.03;;;17.60;;
9667;SDS011;4872;48.316;10.650;2023-01-29T19:26:19;28.57;;;18.00;;
9667;SDS011;4872;48.316;10.650;2023-01-29T19:28:46;29.30;;;18.23;;
9667;SDS011;4872;48.316;10.650;2023-01-29T19:31:12;24.80;;;16.93;;
9667;SDS011;4872;48.316;10.650;2023-01-29T19:33:41;25.43;;;17.30;;
9667;SDS011;4872;48.316;10.650;2023-01-29T19:36:08;27.50;;;18.47;;
9667;SDS011;4872;48.316;10.650;2023-01-29T19:38:36;30.03;;;19.27;;
9667;SDS011;4872;48.316;10.650;2023-01-29T19:41:04;26.87;;;18.97;;
9667;SDS011;4872;48.316;10.650;2023-01-29T19:43:31;27.30;;;18.57;;
9667;SDS011;4872;48.316;10.650;2023-01-29T19:45:58;24.87;;;16.93;;
9667;SDS011;4872;48.316;10.650;2023-01-29T19:48:26;27.70;;;17.73;;
9667;SDS011;4872;48.316;10.650;2023-01-29T19:50:54;28.17;;;18.60;;
9667;SDS011;4872;48.316;10.650;2023-01-29T19:53:22;24.97;;;17.87;;
9667;SDS011;4872;48.316;10.650;2023-01-29T19:55:56;24.03;;;16.10;;
9667;SDS011;4872;48.316;10.650;2023-01-29T19:58:24;29.27;;;19.03;;
9667;SDS011;4872;48.316;10.650;2023-01-29T20:00:54;31.50;;;20.43;;
9667;SDS011;4872;48.316;10.650;2023-01-29T20:03:22;30.80;;;19.60;;
9667;SDS011;4872;48.316;10.650;2023-01-29T20:05:49;25.60;;;17.80;;
9667;SDS011;4872;48.316;10.650;2023-01-29T20:08:18;34.37;;;22.00;;
9667;SDS011;4872;48.316;10.650;2023-01-29T20:10:45;28.43;;;19.93;;
9667;SDS011;4872;48.316;10.650;2023-01-29T20:13:13;24.93;;;16.53;;
9667;SDS011;4872;48.316;10.650;2023-01-29T20:15:42;29.17;;;20.40;;
9667;SDS011;4872;48.316;10.650;2023-01-29T20:18:10;27.03;;;18.97;;
9667;SDS011;4872;48.316;10.650;2023-01-29T20:20:40;30.63;;;20.30;;
9667;SDS011;4872;48.316;10.650;2023-01-29T20:23:07;28.70;;;20.07;;